Outwell, United Kingdom
Current Conditions -  °F | °C
As of 11:50 PM on Saturday 20 Dec 2014 (Local Time) from EGYM Reporting Station
Overcast Overcast  
Wind Chill: 37°   Ceiling: 3500
Heat Index: 43°   Visibility: 6mi
Dew Point: 39°   Wind: 12mph
Humidity: 87%   Direction: 250°WSW
Pressure: 30.39"   Gusts: NA
Location:  52.61°N, 0.23°E
Report Text: EGYM 202350Z AUTO 25010KT 9999 OVC035/// 06/04 Q1029
Loading
Personal Weather Stations






























Interactive Weather Map New forecast layout! Learn more

10-Day Weather Forecast

Advertisements
Track Severe Weather on mobile